sensor_id;sensor_type;location;lat;lon;timestamp;P1;durP1;ratioP1;P2;durP2;ratioP2
77332;SDS011;66408;51.326;12.070;2023-09-12T00:02:16;9.30;;;4.53;;
77332;SDS011;66408;51.326;12.070;2023-09-12T00:04:42;7.78;;;4.95;;
77332;SDS011;66408;51.326;12.070;2023-09-12T00:07:09;9.98;;;4.47;;
77332;SDS011;66408;51.326;12.070;2023-09-12T00:09:36;9.38;;;4.75;;
77332;SDS011;66408;51.326;12.070;2023-09-12T00:12:03;10.38;;;5.18;;
77332;SDS011;66408;51.326;12.070;2023-09-12T00:14:29;7.20;;;4.65;;
77332;SDS011;66408;51.326;12.070;2023-09-12T00:16:56;9.30;;;4.65;;
77332;SDS011;66408;51.326;12.070;2023-09-12T00:19:22;8.60;;;4.75;;
77332;SDS011;66408;51.326;12.070;2023-09-12T00:21:49;9.07;;;5.00;;
77332;SDS011;66408;51.326;12.070;2023-09-12T00:24:16;7.35;;;4.50;;
77332;SDS011;66408;51.326;12.070;2023-09-12T00:26:42;9.02;;;4.88;;
77332;SDS011;66408;51.326;12.070;2023-09-12T00:29:09;9.63;;;4.97;;
77332;SDS011;66408;51.326;12.070;2023-09-12T00:31:35;10.85;;;5.28;;
77332;SDS011;66408;51.326;12.070;2023-09-12T00:34:02;7.30;;;4.50;;
77332;SDS011;66408;51.326;12.070;2023-09-12T00:36:31;8.43;;;4.55;;
77332;SDS011;66408;51.326;12.070;2023-09-12T00:38:59;12.98;;;4.50;;
77332;SDS011;66408;51.326;12.070;2023-09-12T00:41:25;6.68;;;4.72;;
77332;SDS011;66408;51.326;12.070;2023-09-12T00:43:52;9.43;;;4.35;;
77332;SDS011;66408;51.326;12.070;2023-09-12T00:46:19;9.27;;;4.32;;
77332;SDS011;66408;51.326;12.070;2023-09-12T00:48:48;7.32;;;4.35;;
77332;SDS011;66408;51.326;12.070;2023-09-12T00:51:16;6.20;;;4.50;;
77332;SDS011;66408;51.326;12.070;2023-09-12T00:53:44;8.40;;;4.30;;
77332;SDS011;66408;51.326;12.070;2023-09-12T00:56:11;8.93;;;4.60;;
77332;SDS011;66408;51.326;12.070;2023-09-12T00:58:37;8.52;;;4.25;;
77332;SDS011;66408;51.326;12.070;2023-09-12T01:01:04;9.27;;;4.35;;
77332;SDS011;66408;51.326;12.070;2023-09-12T01:03:31;9.65;;;4.78;;
77332;SDS011;66408;51.326;12.070;2023-09-12T01:05:58;8.43;;;4.53;;
77332;SDS011;66408;51.326;12.070;2023-09-12T01:08:26;14.85;;;5.78;;
77332;SDS011;66408;51.326;12.070;2023-09-12T01:10:53;7.15;;;4.20;;
77332;SDS011;66408;51.326;12.070;2023-09-12T01:13:21;10.63;;;4.80;;
77332;SDS011;66408;51.326;12.070;2023-09-12T01:15:49;7.53;;;4.60;;
77332;SDS011;66408;51.326;12.070;2023-09-12T01:18:16;7.85;;;4.35;;
77332;SDS011;66408;51.326;12.070;2023-09-12T01:20:48;9.18;;;4.78;;
77332;SDS011;66408;51.326;12.070;2023-09-12T01:28:53;9.05;;;4.97;;
77332;SDS011;66408;51.326;12.070;2023-09-12T01:31:22;10.35;;;4.50;;
77332;SDS011;66408;51.326;12.070;2023-09-12T01:33:54;7.95;;;4.70;;
77332;SDS011;66408;51.326;12.070;2023-09-12T01:36:21;10.77;;;4.90;;
77332;SDS011;66408;51.326;12.070;2023-09-12T01:38:48;9.45;;;5.18;;
77332;SDS011;66408;51.326;12.070;2023-09-12T01:41:14;9.35;;;4.82;;
77332;SDS011;66408;51.326;12.070;2023-09-12T01:43:41;10.20;;;4.72;;
77332;SDS011;66408;51.326;12.070;2023-09-12T01:46:09;8.63;;;4.80;;
77332;SDS011;66408;51.326;12.070;2023-09-12T01:48:36;9.98;;;5.18;;
77332;SDS011;66408;51.326;12.070;2023-09-12T01:51:04;8.82;;;5.00;;
77332;SDS011;66408;51.326;12.070;2023-09-12T01:53:32;7.80;;;4.57;;
77332;SDS011;66408;51.326;12.070;2023-09-12T01:56:00;8.32;;;4.72;;
77332;SDS011;66408;51.326;12.070;2023-09-12T01:58:26;9.82;;;5.20;;
77332;SDS011;66408;51.326;12.070;2023-09-12T02:00:53;7.13;;;4.57;;
77332;SDS011;66408;51.326;12.070;2023-09-12T02:03:19;13.35;;;5.35;;
77332;SDS011;66408;51.326;12.070;2023-09-12T02:05:46;7.13;;;4.70;;
77332;SDS011;66408;51.326;12.070;2023-09-12T02:08:13;10.52;;;4.97;;
77332;SDS011;66408;51.326;12.070;2023-09-12T02:10:39;7.82;;;4.68;;
77332;SDS011;66408;51.326;12.070;2023-09-12T02:13:06;9.88;;;4.88;;
77332;SDS011;66408;51.326;12.070;2023-09-12T02:15:32;9.82;;;4.93;;
77332;SDS011;66408;51.326;12.070;2023-09-12T02:17:59;8.95;;;5.15;;
77332;SDS011;66408;51.326;12.070;2023-09-12T02:20:26;8.60;;;5.00;;
77332;SDS011;66408;51.326;12.070;2023-09-12T02:22:52;8.32;;;4.97;;
77332;SDS011;66408;51.326;12.070;2023-09-12T02:25:19;7.85;;;4.53;;
77332;SDS011;66408;51.326;12.070;2023-09-12T02:27:46;9.73;;;4.53;;
77332;SDS011;66408;51.326;12.070;2023-09-12T02:30:12;12.18;;;5.15;;
77332;SDS011;66408;51.326;12.070;2023-09-12T02:32:41;11.75;;;4.95;;
77332;SDS011;66408;51.326;12.070;2023-09-12T02:35:08;12.13;;;4.97;;
77332;SDS011;66408;51.326;12.070;2023-09-12T02:37:34;9.82;;;5.05;;
77332;SDS011;66408;51.326;12.070;2023-09-12T02:40:01;10.25;;;5.03;;
77332;SDS011;66408;51.326;12.070;2023-09-12T02:42:30;10.10;;;5.13;;
77332;SDS011;66408;51.326;12.070;2023-09-12T02:44:57;11.27;;;5.32;;
77332;SDS011;66408;51.326;12.070;2023-09-12T02:47:23;9.30;;;4.88;;
77332;SDS011;66408;51.326;12.070;2023-09-12T02:49:50;10.20;;;4.93;;
77332;SDS011;66408;51.326;12.070;2023-09-12T02:52:17;8.93;;;4.70;;
77332;SDS011;66408;51.326;12.070;2023-09-12T02:54:44;9.32;;;4.80;;
77332;SDS011;66408;51.326;12.070;2023-09-12T02:57:10;9.30;;;4.78;;
77332;SDS011;66408;51.326;12.070;2023-09-12T02:59:37;7.32;;;4.75;;
77332;SDS011;66408;51.326;12.070;2023-09-12T03:02:04;9.05;;;5.05;;
77332;SDS011;66408;51.326;12.070;2023-09-12T03:04:32;10.32;;;5.60;;
77332;SDS011;66408;51.326;12.070;2023-09-12T03:07:01;7.53;;;5.00;;
77332;SDS011;66408;51.326;12.070;2023-09-12T03:09:28;10.15;;;5.20;;
77332;SDS011;66408;51.326;12.070;2023-09-12T03:11:54;6.93;;;4.80;;
77332;SDS011;66408;51.326;12.070;2023-09-12T03:14:21;8.32;;;5.15;;
77332;SDS011;66408;51.326;12.070;2023-09-12T03:16:48;9.32;;;5.18;;
77332;SDS011;66408;51.326;12.070;2023-09-12T03:19:14;10.90;;;5.10;;
77332;SDS011;66408;51.326;12.070;2023-09-12T03:21:41;8.60;;;4.88;;
77332;SDS011;66408;51.326;12.070;2023-09-12T03:24:08;8.10;;;5.07;;
77332;SDS011;66408;51.326;12.070;2023-09-12T03:26:35;10.18;;;5.38;;
77332;SDS011;66408;51.326;12.070;2023-09-12T03:29:05;7.57;;;5.28;;
77332;SDS011;66408;51.326;12.070;2023-09-12T03:31:32;8.52;;;4.68;;
77332;SDS011;66408;51.326;12.070;2023-09-12T03:33:58;11.05;;;5.25;;
77332;SDS011;66408;51.326;12.070;2023-09-12T03:36:25;6.72;;;4.85;;
77332;SDS011;66408;51.326;12.070;2023-09-12T03:38:52;9.30;;;5.28;;
77332;SDS011;66408;51.326;12.070;2023-09-12T03:41:19;10.70;;;5.20;;
77332;SDS011;66408;51.326;12.070;2023-09-12T03:43:48;7.25;;;5.28;;
77332;SDS011;66408;51.326;12.070;2023-09-12T03:46:14;7.72;;;5.22;;
77332;SDS011;66408;51.326;12.070;2023-09-12T03:48:41;10.05;;;5.40;;
77332;SDS011;66408;51.326;12.070;2023-09-12T03:51:08;8.00;;;4.90;;
77332;SDS011;66408;51.326;12.070;2023-09-12T03:53:34;8.95;;;5.38;;
77332;SDS011;66408;51.326;12.070;2023-09-12T03:56:01;8.88;;;5.28;;
77332;SDS011;66408;51.326;12.070;2023-09-12T03:58:27;10.25;;;5.45;;
77332;SDS011;66408;51.326;12.070;2023-09-12T04:00:54;10.93;;;5.93;;
77332;SDS011;66408;51.326;12.070;2023-09-12T04:03:20;10.60;;;5.07;;
77332;SDS011;66408;51.326;12.070;2023-09-12T04:05:47;14.45;;;5.57;;
77332;SDS011;66408;51.326;12.070;2023-09-12T04:08:14;10.27;;;5.55;;
77332;SDS011;66408;51.326;12.070;2023-09-12T04:10:40;7.68;;;5.07;;
77332;SDS011;66408;51.326;12.070;2023-09-12T04:13:07;10.57;;;5.40;;
77332;SDS011;66408;51.326;12.070;2023-09-12T04:15:34;10.05;;;5.82;;
77332;SDS011;66408;51.326;12.070;2023-09-12T04:18:00;12.15;;;5.57;;
77332;SDS011;66408;51.326;12.070;2023-09-12T04:20:27;8.27;;;5.28;;
77332;SDS011;66408;51.326;12.070;2023-09-12T04:22:53;9.43;;;5.20;;
77332;SDS011;66408;51.326;12.070;2023-09-12T04:25:20;7.88;;;5.30;;
77332;SDS011;66408;51.326;12.070;2023-09-12T04:27:46;8.02;;;5.20;;
77332;SDS011;66408;51.326;12.070;2023-09-12T04:30:13;10.10;;;5.13;;
77332;SDS011;66408;51.326;12.070;2023-09-12T04:32:39;7.32;;;5.18;;
77332;SDS011;66408;51.326;12.070;2023-09-12T04:35:06;12.57;;;5.88;;
77332;SDS011;66408;51.326;12.070;2023-09-12T04:37:33;9.98;;;5.03;;
77332;SDS011;66408;51.326;12.070;2023-09-12T04:39:59;9.52;;;4.95;;
77332;SDS011;66408;51.326;12.070;2023-09-12T04:42:26;8.38;;;5.55;;
77332;SDS011;66408;51.326;12.070;2023-09-12T04:44:53;9.35;;;5.28;;
77332;SDS011;66408;51.326;12.070;2023-09-12T04:47:20;8.20;;;5.20;;
77332;SDS011;66408;51.326;12.070;2023-09-12T04:49:47;13.32;;;5.45;;
77332;SDS011;66408;51.326;12.070;2023-09-12T04:52:13;10.32;;;6.00;;
77332;SDS011;66408;51.326;12.070;2023-09-12T04:54:40;10.27;;;5.20;;
77332;SDS011;66408;51.326;12.070;2023-09-12T04:57:07;10.32;;;6.10;;
77332;SDS011;66408;51.326;12.070;2023-09-12T04:59:34;10.93;;;5.72;;
77332;SDS011;66408;51.326;12.070;2023-09-12T05:02:00;10.57;;;5.32;;
77332;SDS011;66408;51.326;12.070;2023-09-12T05:04:27;9.38;;;5.82;;
77332;SDS011;66408;51.326;12.070;2023-09-12T05:06:53;12.52;;;5.70;;
77332;SDS011;66408;51.326;12.070;2023-09-12T05:09:20;10.77;;;6.22;;
77332;SDS011;66408;51.326;12.070;2023-09-12T05:11:47;11.52;;;5.95;;
77332;SDS011;66408;51.326;12.070;2023-09-12T05:14:13;12.20;;;6.47;;
77332;SDS011;66408;51.326;12.070;2023-09-12T05:16:40;14.07;;;5.18;;
77332;SDS011;66408;51.326;12.070;2023-09-12T05:19:06;13.25;;;5.75;;
77332;SDS011;66408;51.326;12.070;2023-09-12T05:21:33;9.95;;;5.85;;
77332;SDS011;66408;51.326;12.070;2023-09-12T05:23:59;13.38;;;5.35;;
77332;SDS011;66408;51.326;12.070;2023-09-12T05:26:26;9.93;;;5.63;;
77332;SDS011;66408;51.326;12.070;2023-09-12T05:28:52;11.35;;;5.55;;
77332;SDS011;66408;51.326;12.070;2023-09-12T05:31:19;11.23;;;5.63;;
77332;SDS011;66408;51.326;12.070;2023-09-12T05:33:46;11.48;;;6.05;;
77332;SDS011;66408;51.326;12.070;2023-09-12T05:36:12;8.52;;;5.45;;
77332;SDS011;66408;51.326;12.070;2023-09-12T05:38:39;11.18;;;6.30;;
77332;SDS011;66408;51.326;12.070;2023-09-12T05:41:06;10.65;;;6.38;;
77332;SDS011;66408;51.326;12.070;2023-09-12T05:43:32;13.27;;;5.93;;
77332;SDS011;66408;51.326;12.070;2023-09-12T05:45:59;13.38;;;6.43;;
77332;SDS011;66408;51.326;12.070;2023-09-12T05:48:26;12.23;;;5.93;;
77332;SDS011;66408;51.326;12.070;2023-09-12T05:50:52;13.38;;;7.15;;
77332;SDS011;66408;51.326;12.070;2023-09-12T05:53:19;13.73;;;5.55;;
77332;SDS011;66408;51.326;12.070;2023-09-12T05:55:45;12.07;;;6.63;;
77332;SDS011;66408;51.326;12.070;2023-09-12T05:58:12;9.00;;;5.60;;
77332;SDS011;66408;51.326;12.070;2023-09-12T06:00:38;15.05;;;6.68;;
77332;SDS011;66408;51.326;12.070;2023-09-12T06:03:06;9.68;;;5.85;;
77332;SDS011;66408;51.326;12.070;2023-09-12T06:05:33;12.82;;;6.22;;
77332;SDS011;66408;51.326;12.070;2023-09-12T06:08:00;14.30;;;6.32;;
77332;SDS011;66408;51.326;12.070;2023-09-12T06:10:26;14.80;;;6.05;;
77332;SDS011;66408;51.326;12.070;2023-09-12T06:12:53;12.23;;;6.38;;
77332;SDS011;66408;51.326;12.070;2023-09-12T06:15:19;12.20;;;6.05;;
77332;SDS011;66408;51.326;12.070;2023-09-12T06:17:46;10.40;;;6.25;;
77332;SDS011;66408;51.326;12.070;2023-09-12T06:20:12;11.80;;;6.40;;
77332;SDS011;66408;51.326;12.070;2023-09-12T06:22:39;9.50;;;5.82;;
77332;SDS011;66408;51.326;12.070;2023-09-12T06:25:06;12.75;;;6.00;;
77332;SDS011;66408;51.326;12.070;2023-09-12T06:27:33;12.63;;;6.35;;
77332;SDS011;66408;51.326;12.070;2023-09-12T06:29:59;12.20;;;6.22;;
77332;SDS011;66408;51.326;12.070;2023-09-12T06:32:26;11.02;;;6.43;;
77332;SDS011;66408;51.326;12.070;2023-09-12T06:34:52;9.07;;;5.65;;
77332;SDS011;66408;51.326;12.070;2023-09-12T06:37:19;10.27;;;5.72;;
77332;SDS011;66408;51.326;12.070;2023-09-12T06:39:48;12.27;;;6.35;;
77332;SDS011;66408;51.326;12.070;2023-09-12T06:42:15;10.60;;;5.82;;
77332;SDS011;66408;51.326;12.070;2023-09-12T06:44:42;14.68;;;6.13;;
77332;SDS011;66408;51.326;12.070;2023-09-12T06:47:09;13.27;;;6.72;;
77332;SDS011;66408;51.326;12.070;2023-09-12T06:49:36;12.45;;;6.40;;
77332;SDS011;66408;51.326;12.070;2023-09-12T06:52:04;17.02;;;6.88;;
77332;SDS011;66408;51.326;12.070;2023-09-12T06:54:32;11.20;;;6.03;;
77332;SDS011;66408;51.326;12.070;2023-09-12T06:56:59;9.85;;;5.65;;
77332;SDS011;66408;51.326;12.070;2023-09-12T06:59:25;12.57;;;6.28;;
77332;SDS011;66408;51.326;12.070;2023-09-12T07:01:52;12.23;;;6.40;;
77332;SDS011;66408;51.326;12.070;2023-09-12T07:04:19;14.05;;;6.60;;
77332;SDS011;66408;51.326;12.070;2023-09-12T07:06:45;13.25;;;6.63;;
77332;SDS011;66408;51.326;12.070;2023-09-12T07:09:12;12.75;;;6.80;;
77332;SDS011;66408;51.326;12.070;2023-09-12T07:11:41;13.85;;;7.05;;
77332;SDS011;66408;51.326;12.070;2023-09-12T07:14:08;14.70;;;7.40;;
77332;SDS011;66408;51.326;12.070;2023-09-12T07:16:37;11.50;;;6.32;;
77332;SDS011;66408;51.326;12.070;2023-09-12T07:19:04;11.77;;;6.20;;
77332;SDS011;66408;51.326;12.070;2023-09-12T07:21:31;9.85;;;6.45;;
77332;SDS011;66408;51.326;12.070;2023-09-12T07:23:58;16.63;;;6.85;;
77332;SDS011;66408;51.326;12.070;2023-09-12T07:26:25;10.70;;;6.55;;
77332;SDS011;66408;51.326;12.070;2023-09-12T07:28:53;13.10;;;6.15;;
77332;SDS011;66408;51.326;12.070;2023-09-12T07:31:20;15.73;;;6.63;;
77332;SDS011;66408;51.326;12.070;2023-09-12T07:33:47;11.10;;;5.93;;
77332;SDS011;66408;51.326;12.070;2023-09-12T07:36:14;9.90;;;6.20;;
77332;SDS011;66408;51.326;12.070;2023-09-12T07:38:40;11.80;;;5.47;;
77332;SDS011;66408;51.326;12.070;2023-09-12T07:41:09;18.92;;;6.90;;
77332;SDS011;66408;51.326;12.070;2023-09-12T07:43:35;13.82;;;6.88;;
77332;SDS011;66408;51.326;12.070;2023-09-12T07:46:01;15.30;;;6.72;;
77332;SDS011;66408;51.326;12.070;2023-09-12T07:48:28;14.40;;;6.47;;
77332;SDS011;66408;51.326;12.070;2023-09-12T07:50:55;16.70;;;6.90;;
77332;SDS011;66408;51.326;12.070;2023-09-12T07:53:22;17.60;;;7.20;;
77332;SDS011;66408;51.326;12.070;2023-09-12T07:55:48;11.50;;;6.65;;
77332;SDS011;66408;51.326;12.070;2023-09-12T07:58:16;16.20;;;7.43;;
77332;SDS011;66408;51.326;12.070;2023-09-12T08:00:47;11.60;;;6.60;;
77332;SDS011;66408;51.326;12.070;2023-09-12T08:03:14;12.95;;;6.85;;
77332;SDS011;66408;51.326;12.070;2023-09-12T08:05:42;17.63;;;7.75;;
77332;SDS011;66408;51.326;12.070;2023-09-12T08:08:08;14.00;;;8.82;;
77332;SDS011;66408;51.326;12.070;2023-09-12T08:10:35;19.05;;;8.25;;
77332;SDS011;66408;51.326;12.070;2023-09-12T08:13:02;15.52;;;8.05;;
77332;SDS011;66408;51.326;12.070;2023-09-12T08:15:29;15.50;;;7.60;;
77332;SDS011;66408;51.326;12.070;2023-09-12T08:17:55;17.67;;;9.10;;
77332;SDS011;66408;51.326;12.070;2023-09-12T08:20:22;15.55;;;8.23;;
77332;SDS011;66408;51.326;12.070;2023-09-12T08:22:49;16.27;;;8.45;;
77332;SDS011;66408;51.326;12.070;2023-09-12T08:25:15;15.43;;;8.60;;
77332;SDS011;66408;51.326;12.070;2023-09-12T08:27:42;18.23;;;9.13;;
77332;SDS011;66408;51.326;12.070;2023-09-12T08:30:10;18.40;;;8.18;;
77332;SDS011;66408;51.326;12.070;2023-09-12T08:32:39;18.23;;;7.88;;
77332;SDS011;66408;51.326;12.070;2023-09-12T08:35:11;13.93;;;8.32;;
77332;SDS011;66408;51.326;12.070;2023-09-12T08:37:39;13.10;;;8.68;;
77332;SDS011;66408;51.326;12.070;2023-09-12T08:40:07;16.50;;;8.95;;
77332;SDS011;66408;51.326;12.070;2023-09-12T08:42:44;12.82;;;8.88;;
77332;SDS011;66408;51.326;12.070;2023-09-12T08:45:13;17.55;;;9.43;;
77332;SDS011;66408;51.326;12.070;2023-09-12T08:47:43;23.40;;;9.20;;
77332;SDS011;66408;51.326;12.070;2023-09-12T08:50:16;12.73;;;9.20;;
77332;SDS011;66408;51.326;12.070;2023-09-12T08:52:44;17.48;;;9.55;;
77332;SDS011;66408;51.326;12.070;2023-09-12T08:55:29;16.60;;;9.73;;
77332;SDS011;66408;51.326;12.070;2023-09-12T08:57:58;13.45;;;9.98;;
77332;SDS011;66408;51.326;12.070;2023-09-12T09:00:26;22.05;;;10.00;;
77332;SDS011;66408;51.326;12.070;2023-09-12T09:02:54;20.38;;;10.63;;
77332;SDS011;66408;51.326;12.070;2023-09-12T09:05:21;18.27;;;10.60;;
77332;SDS011;66408;51.326;12.070;2023-09-12T09:10:16;21.27;;;11.60;;
77332;SDS011;66408;51.326;12.070;2023-09-12T09:12:51;14.55;;;10.45;;
77332;SDS011;66408;51.326;12.070;2023-09-12T09:15:22;15.45;;;10.25;;
77332;SDS011;66408;51.326;12.070;2023-09-12T09:17:54;18.65;;;11.18;;
77332;SDS011;66408;51.326;12.070;2023-09-12T09:20:22;20.65;;;10.80;;
77332;SDS011;66408;51.326;12.070;2023-09-12T09:22:59;15.50;;;10.63;;
77332;SDS011;66408;51.326;12.070;2023-09-12T09:25:33;17.98;;;10.95;;
77332;SDS011;66408;51.326;12.070;2023-09-12T09:28:03;19.50;;;10.05;;
77332;SDS011;66408;51.326;12.070;2023-09-12T09:30:41;19.90;;;11.07;;
77332;SDS011;66408;51.326;12.070;2023-09-12T09:33:09;18.23;;;9.30;;
77332;SDS011;66408;51.326;12.070;2023-09-12T09:35:36;17.20;;;10.23;;
77332;SDS011;66408;51.326;12.070;2023-09-12T09:38:03;16.73;;;10.88;;
77332;SDS011;66408;51.326;12.070;2023-09-12T09:40:32;17.83;;;10.40;;
77332;SDS011;66408;51.326;12.070;2023-09-12T09:43:00;17.75;;;10.15;;
77332;SDS011;66408;51.326;12.070;2023-09-12T09:45:28;14.95;;;9.27;;
77332;SDS011;66408;51.326;12.070;2023-09-12T09:47:56;15.35;;;9.57;;
77332;SDS011;66408;51.326;12.070;2023-09-12T09:50:25;18.45;;;10.32;;
77332;SDS011;66408;51.326;12.070;2023-09-12T09:52:53;16.95;;;9.23;;
77332;SDS011;66408;51.326;12.070;2023-09-12T09:55:21;19.98;;;9.77;;
77332;SDS011;66408;51.326;12.070;2023-09-12T09:57:48;17.40;;;10.05;;
77332;SDS011;66408;51.326;12.070;2023-09-12T10:00:15;18.75;;;9.55;;
77332;SDS011;66408;51.326;12.070;2023-09-12T10:02:43;13.80;;;8.68;;
77332;SDS011;66408;51.326;12.070;2023-09-12T10:05:11;18.10;;;9.05;;
77332;SDS011;66408;51.326;12.070;2023-09-12T10:07:39;12.38;;;8.70;;
77332;SDS011;66408;51.326;12.070;2023-09-12T10:10:08;11.27;;;7.85;;
77332;SDS011;66408;51.326;12.070;2023-09-12T10:12:35;13.32;;;7.32;;
77332;SDS011;66408;51.326;12.070;2023-09-12T10:15:04;15.15;;;7.85;;
77332;SDS011;66408;51.326;12.070;2023-09-12T10:17:37;8.40;;;6.55;;
77332;SDS011;66408;51.326;12.070;2023-09-12T10:20:08;9.57;;;6.50;;
77332;SDS011;66408;51.326;12.070;2023-09-12T10:22:52;12.77;;;5.93;;
77332;SDS011;66408;51.326;12.070;2023-09-12T10:25:29;8.98;;;6.00;;
77332;SDS011;66408;51.326;12.070;2023-09-12T10:27:56;11.13;;;5.13;;
77332;SDS011;66408;51.326;12.070;2023-09-12T10:30:23;12.07;;;4.88;;
77332;SDS011;66408;51.326;12.070;2023-09-12T10:32:51;6.22;;;4.50;;
77332;SDS011;66408;51.326;12.070;2023-09-12T10:35:18;10.68;;;4.60;;
77332;SDS011;66408;51.326;12.070;2023-09-12T10:37:45;9.13;;;5.10;;
77332;SDS011;66408;51.326;12.070;2023-09-12T10:40:15;10.60;;;5.30;;
77332;SDS011;66408;51.326;12.070;2023-09-12T10:42:43;8.23;;;4.82;;
77332;SDS011;66408;51.326;12.070;2023-09-12T10:45:10;9.40;;;5.25;;
77332;SDS011;66408;51.326;12.070;2023-09-12T10:47:37;10.50;;;5.05;;
77332;SDS011;66408;51.326;12.070;2023-09-12T10:50:06;7.68;;;5.75;;
77332;SDS011;66408;51.326;12.070;2023-09-12T10:52:33;7.38;;;5.45;;
77332;SDS011;66408;51.326;12.070;2023-09-12T10:55:04;6.88;;;5.25;;
77332;SDS011;66408;51.326;12.070;2023-09-12T10:57:31;10.30;;;4.82;;
77332;SDS011;66408;51.326;12.070;2023-09-12T11:02:31;9.15;;;5.63;;
77332;SDS011;66408;51.326;12.070;2023-09-12T11:05:00;11.13;;;5.13;;
77332;SDS011;66408;51.326;12.070;2023-09-12T11:12:44;12.70;;;5.75;;
77332;SDS011;66408;51.326;12.070;2023-09-12T11:15:12;12.43;;;6.22;;
77332;SDS011;66408;51.326;12.070;2023-09-12T11:17:41;10.52;;;6.47;;
77332;SDS011;66408;51.326;12.070;2023-09-12T11:20:09;11.15;;;7.13;;
77332;SDS011;66408;51.326;12.070;2023-09-12T11:22:40;11.35;;;6.18;;
77332;SDS011;66408;51.326;12.070;2023-09-12T11:30:19;14.27;;;6.50;;
77332;SDS011;66408;51.326;12.070;2023-09-12T11:32:48;12.15;;;6.72;;
77332;SDS011;66408;51.326;12.070;2023-09-12T11:35:21;7.93;;;6.55;;
77332;SDS011;66408;51.326;12.070;2023-09-12T11:37:58;14.88;;;7.68;;
77332;SDS011;66408;51.326;12.070;2023-09-12T11:40:41;13.77;;;7.78;;
77332;SDS011;66408;51.326;12.070;2023-09-12T11:43:19;14.18;;;7.03;;
77332;SDS011;66408;51.326;12.070;2023-09-12T11:45:48;15.02;;;7.85;;
77332;SDS011;66408;51.326;12.070;2023-09-12T11:48:16;13.15;;;7.43;;
77332;SDS011;66408;51.326;12.070;2023-09-12T11:50:42;11.93;;;7.30;;
77332;SDS011;66408;51.326;12.070;2023-09-12T11:53:14;16.42;;;8.20;;
77332;SDS011;66408;51.326;12.070;2023-09-12T11:55:45;12.45;;;7.30;;
77332;SDS011;66408;51.326;12.070;2023-09-12T11:58:13;12.13;;;6.53;;
77332;SDS011;66408;51.326;12.070;2023-09-12T12:01:00;10.65;;;6.78;;
77332;SDS011;66408;51.326;12.070;2023-09-12T12:03:27;9.77;;;6.25;;
77332;SDS011;66408;51.326;12.070;2023-09-12T12:08:22;12.93;;;6.30;;
77332;SDS011;66408;51.326;12.070;2023-09-12T12:10:52;9.27;;;5.88;;
77332;SDS011;66408;51.326;12.070;2023-09-12T12:13:20;9.52;;;5.70;;
77332;SDS011;66408;51.326;12.070;2023-09-12T12:15:47;13.38;;;6.28;;
77332;SDS011;66408;51.326;12.070;2023-09-12T12:18:14;10.93;;;5.20;;
77332;SDS011;66408;51.326;12.070;2023-09-12T12:20:41;14.48;;;5.72;;
77332;SDS011;66408;51.326;12.070;2023-09-12T12:23:08;9.70;;;5.95;;
77332;SDS011;66408;51.326;12.070;2023-09-12T12:25:35;11.10;;;5.63;;
77332;SDS011;66408;51.326;12.070;2023-09-12T12:28:02;10.45;;;5.70;;
77332;SDS011;66408;51.326;12.070;2023-09-12T12:30:30;10.30;;;5.78;;
77332;SDS011;66408;51.326;12.070;2023-09-12T12:33:00;9.10;;;5.47;;
77332;SDS011;66408;51.326;12.070;2023-09-12T12:35:49;8.68;;;5.28;;
77332;SDS011;66408;51.326;12.070;2023-09-12T12:38:22;10.60;;;5.80;;
77332;SDS011;66408;51.326;12.070;2023-09-12T12:40:48;8.65;;;5.82;;
77332;SDS011;66408;51.326;12.070;2023-09-12T12:43:16;9.00;;;5.55;;
77332;SDS011;66408;51.326;12.070;2023-09-12T12:45:52;10.75;;;6.28;;
77332;SDS011;66408;51.326;12.070;2023-09-12T12:48:43;9.85;;;5.97;;
77332;SDS011;66408;51.326;12.070;2023-09-12T12:51:15;9.52;;;5.50;;
77332;SDS011;66408;51.326;12.070;2023-09-12T12:53:52;9.55;;;5.47;;
77332;SDS011;66408;51.326;12.070;2023-09-12T12:56:21;13.88;;;5.95;;
77332;SDS011;66408;51.326;12.070;2023-09-12T12:58:58;9.45;;;5.65;;
77332;SDS011;66408;51.326;12.070;2023-09-12T13:01:30;9.77;;;5.60;;
77332;SDS011;66408;51.326;12.070;2023-09-12T13:03:56;7.97;;;5.63;;
77332;SDS011;66408;51.326;12.070;2023-09-12T13:06:23;10.23;;;6.45;;
77332;SDS011;66408;51.326;12.070;2023-09-12T13:08:52;14.85;;;7.00;;
77332;SDS011;66408;51.326;12.070;2023-09-12T13:11:18;10.50;;;5.72;;
77332;SDS011;66408;51.326;12.070;2023-09-12T13:13:45;8.65;;;5.32;;
77332;SDS011;66408;51.326;12.070;2023-09-12T13:16:14;11.52;;;6.25;;
77332;SDS011;66408;51.326;12.070;2023-09-12T13:18:42;9.05;;;5.35;;
77332;SDS011;66408;51.326;12.070;2023-09-12T13:21:09;8.77;;;5.72;;
77332;SDS011;66408;51.326;12.070;2023-09-12T13:23:36;10.18;;;5.65;;
77332;SDS011;66408;51.326;12.070;2023-09-12T13:26:04;8.38;;;5.55;;
77332;SDS011;66408;51.326;12.070;2023-09-12T13:28:32;9.88;;;5.75;;
77332;SDS011;66408;51.326;12.070;2023-09-12T13:30:58;10.45;;;6.53;;
77332;SDS011;66408;51.326;12.070;2023-09-12T13:33:25;11.50;;;5.97;;
77332;SDS011;66408;51.326;12.070;2023-09-12T13:35:51;9.70;;;6.00;;
77332;SDS011;66408;51.326;12.070;2023-09-12T13:38:18;20.23;;;8.40;;
77332;SDS011;66408;51.326;12.070;2023-09-12T13:40:46;40.63;;;10.38;;
77332;SDS011;66408;51.326;12.070;2023-09-12T13:43:13;64.18;;;16.50;;
77332;SDS011;66408;51.326;12.070;2023-09-12T13:45:40;33.55;;;10.57;;
77332;SDS011;66408;51.326;12.070;2023-09-12T13:48:07;16.27;;;7.63;;
77332;SDS011;66408;51.326;12.070;2023-09-12T13:50:34;13.95;;;5.97;;
77332;SDS011;66408;51.326;12.070;2023-09-12T13:53:02;10.98;;;6.65;;
77332;SDS011;66408;51.326;12.070;2023-09-12T13:55:30;12.02;;;6.70;;
77332;SDS011;66408;51.326;12.070;2023-09-12T13:58:16;9.30;;;6.45;;
77332;SDS011;66408;51.326;12.070;2023-09-12T14:00:43;9.25;;;6.60;;
77332;SDS011;66408;51.326;12.070;2023-09-12T14:03:10;13.77;;;7.00;;
77332;SDS011;66408;51.326;12.070;2023-09-12T14:05:37;10.27;;;6.53;;
77332;SDS011;66408;51.326;12.070;2023-09-12T14:08:04;9.80;;;6.88;;
77332;SDS011;66408;51.326;12.070;2023-09-12T14:10:31;11.95;;;6.65;;
77332;SDS011;66408;51.326;12.070;2023-09-12T14:13:03;12.95;;;6.60;;
77332;SDS011;66408;51.326;12.070;2023-09-12T14:15:46;11.80;;;6.55;;
77332;SDS011;66408;51.326;12.070;2023-09-12T14:18:13;14.50;;;6.65;;
77332;SDS011;66408;51.326;12.070;2023-09-12T14:20:40;10.13;;;6.38;;
77332;SDS011;66408;51.326;12.070;2023-09-12T14:23:08;14.23;;;6.43;;
77332;SDS011;66408;51.326;12.070;2023-09-12T14:25:35;8.90;;;5.85;;
77332;SDS011;66408;51.326;12.070;2023-09-12T14:28:02;14.32;;;5.90;;
77332;SDS011;66408;51.326;12.070;2023-09-12T14:30:31;8.93;;;6.50;;
77332;SDS011;66408;51.326;12.070;2023-09-12T14:33:02;12.95;;;5.95;;
77332;SDS011;66408;51.326;12.070;2023-09-12T14:35:29;11.55;;;6.45;;
77332;SDS011;66408;51.326;12.070;2023-09-12T14:37:56;8.55;;;6.32;;
77332;SDS011;66408;51.326;12.070;2023-09-12T14:40:23;10.80;;;6.60;;
77332;SDS011;66408;51.326;12.070;2023-09-12T14:42:49;16.95;;;6.35;;
77332;SDS011;66408;51.326;12.070;2023-09-12T14:45:16;14.10;;;6.50;;
77332;SDS011;66408;51.326;12.070;2023-09-12T14:47:43;13.43;;;6.22;;
77332;SDS011;66408;51.326;12.070;2023-09-12T14:50:10;41.42;;;14.18;;
77332;SDS011;66408;51.326;12.070;2023-09-12T14:52:36;48.80;;;15.63;;
77332;SDS011;66408;51.326;12.070;2023-09-12T14:55:05;20.80;;;8.98;;